createdAt,value
2024-04-25T00:00:05.066Z,16.50
2024-04-25T00:02:12.670Z,16.60
2024-04-25T00:04:20.010Z,15.30
2024-04-25T00:06:27.239Z,14.40
2024-04-25T00:08:34.709Z,14.30
2024-04-25T00:10:42.517Z,14.70
2024-04-25T00:12:49.718Z,15.00
2024-04-25T00:14:57.096Z,15.50
2024-04-25T00:17:04.556Z,14.70
2024-04-25T00:19:11.932Z,14.90
2024-04-25T00:21:19.174Z,15.60
2024-04-25T00:23:26.466Z,14.70
2024-04-25T00:25:33.991Z,15.40
2024-04-25T00:27:41.337Z,16.70
2024-04-25T00:29:48.529Z,15.60
2024-04-25T00:31:55.798Z,14.70
2024-04-25T00:34:03.231Z,14.60
2024-04-25T00:36:10.880Z,14.20
2024-04-25T00:38:18.520Z,20.30
2024-04-25T00:40:26.190Z,25.30
2024-04-25T00:42:33.432Z,26.00
2024-04-25T00:44:41.035Z,26.70
2024-04-25T00:46:49.103Z,27.30
2024-04-25T00:48:57.918Z,28.70
2024-04-25T00:51:08.118Z,28.40
2024-04-25T00:53:15.924Z,30.90
2024-04-25T00:55:23.359Z,30.10
2024-04-25T00:57:32.350Z,29.70
2024-04-25T00:59:41.757Z,31.10
2024-04-25T01:01:49.820Z,31.30
2024-04-25T01:04:01.404Z,30.40
2024-04-25T01:06:09.845Z,31.40
2024-04-25T01:08:17.173Z,30.10
2024-04-25T01:10:24.423Z,29.50
2024-04-25T01:12:32.456Z,27.80
2024-04-25T01:14:39.763Z,26.60
2024-04-25T01:16:47.120Z,24.80
2024-04-25T01:18:54.459Z,27.90
2024-04-25T01:21:01.788Z,28.30
2024-04-25T01:23:12.330Z,27.70
2024-04-25T01:25:21.079Z,28.70
2024-04-25T01:27:29.340Z,28.70
2024-04-25T01:29:36.982Z,28.00
2024-04-25T01:31:45.966Z,27.20
2024-04-25T01:33:55.174Z,27.00
2024-04-25T01:36:02.976Z,27.00
2024-04-25T01:38:10.298Z,27.60
2024-04-25T01:40:18.784Z,27.40
2024-04-25T01:42:27.458Z,29.50
2024-04-25T01:44:34.930Z,26.20
2024-04-25T01:46:43.660Z,28.00
2024-04-25T01:48:52.753Z,27.50
2024-04-25T01:51:00.108Z,24.40
2024-04-25T01:53:07.514Z,24.20
2024-04-25T01:55:14.905Z,22.30
2024-04-25T01:57:22.119Z,22.00
2024-04-25T01:59:29.497Z,21.00
2024-04-25T02:01:36.756Z,20.50
2024-04-25T02:03:44.515Z,19.70
2024-04-25T02:05:51.787Z,20.10
2024-04-25T02:07:59.053Z,18.60
2024-04-25T02:10:07.311Z,17.20
2024-04-25T02:12:14.835Z,18.60
2024-04-25T02:14:22.156Z,17.20
2024-04-25T02:16:29.532Z,18.10
2024-04-25T02:18:36.864Z,18.20
2024-04-25T02:21:02.402Z,20.80
2024-04-25T02:23:27.764Z,23.10
2024-04-25T02:25:35.103Z,26.00
2024-04-25T02:27:42.359Z,28.80
2024-04-25T02:29:49.614Z,30.30
2024-04-25T02:31:56.852Z,29.50
2024-04-25T02:34:04.110Z,28.60
2024-04-25T02:36:11.815Z,28.50
2024-04-25T02:38:19.178Z,27.10
2024-04-25T02:40:26.440Z,30.90
2024-04-25T02:42:33.738Z,28.80
2024-04-25T02:44:41.505Z,29.70
2024-04-25T02:46:48.753Z,26.20
2024-04-25T02:48:56.074Z,22.80
2024-04-25T02:51:03.586Z,29.10
2024-04-25T02:53:10.801Z,30.10
2024-04-25T02:55:18.194Z,31.60
2024-04-25T02:57:25.481Z,30.20
2024-04-25T02:59:32.833Z,30.40
2024-04-25T03:01:40.155Z,30.30
2024-04-25T03:03:47.407Z,29.60
2024-04-25T03:05:55.126Z,32.20
2024-04-25T03:08:02.345Z,30.00
2024-04-25T03:10:10.972Z,28.90
2024-04-25T03:12:18.301Z,27.10
2024-04-25T03:14:25.747Z,27.80
2024-04-25T03:16:33.043Z,28.70
2024-04-25T03:18:40.397Z,28.40
2024-04-25T03:20:47.789Z,28.60
2024-04-25T03:22:55.035Z,29.40
2024-04-25T03:25:04.505Z,29.70
2024-04-25T03:27:13.121Z,29.00
2024-04-25T03:29:20.530Z,29.70
2024-04-25T03:31:27.812Z,29.00
2024-04-25T03:33:35.170Z,28.20
2024-04-25T03:35:42.546Z,28.00
2024-04-25T03:37:49.837Z,28.60
2024-04-25T03:39:57.082Z,24.70
2024-04-25T03:42:06.171Z,30.40
2024-04-25T03:44:13.802Z,30.00
2024-04-25T03:46:21.396Z,31.30
2024-04-25T03:48:28.842Z,28.80
2024-04-25T03:50:36.580Z,30.80
2024-04-25T03:52:44.296Z,29.70
2024-04-25T03:54:51.513Z,28.90
2024-04-25T03:56:59.615Z,29.50
2024-04-25T03:59:07.548Z,31.00
2024-04-25T04:01:15.764Z,29.70
2024-04-25T04:03:23.147Z,27.70
2024-04-25T04:05:30.691Z,30.40
2024-04-25T04:07:38.217Z,29.30
2024-04-25T04:09:45.458Z,30.30
2024-04-25T04:11:52.769Z,28.90
2024-04-25T04:13:59.968Z,30.40
2024-04-25T04:16:10.064Z,31.80
2024-04-25T04:18:17.444Z,31.30
2024-04-25T04:20:24.766Z,31.90
2024-04-25T04:22:32.034Z,32.90
2024-04-25T04:24:39.248Z,32.40
2024-04-25T04:26:46.471Z,30.30
2024-04-25T04:28:53.742Z,30.60
2024-04-25T04:31:00.984Z,31.10
2024-04-25T04:33:08.435Z,31.50
2024-04-25T04:35:15.917Z,28.90
2024-04-25T04:37:23.912Z,31.50
2024-04-25T04:39:31.086Z,29.90
2024-04-25T04:41:38.425Z,31.70
2024-04-25T04:43:45.896Z,31.90
2024-04-25T04:45:56.302Z,31.60
2024-04-25T04:48:05.880Z,30.50
2024-04-25T04:50:13.537Z,29.80
2024-04-25T04:52:21.773Z,30.40
2024-04-25T04:54:28.993Z,30.70
2024-04-25T04:56:36.255Z,30.50
2024-04-25T04:58:43.698Z,32.80
2024-04-25T05:00:50.883Z,32.20
2024-04-25T05:02:58.160Z,32.10
2024-04-25T05:05:05.965Z,30.60
2024-04-25T05:07:13.207Z,33.90
2024-04-25T05:09:20.449Z,32.00
2024-04-25T05:11:30.388Z,31.20
2024-04-25T05:13:37.913Z,31.20
2024-04-25T05:15:45.217Z,30.60
2024-04-25T05:17:54.217Z,31.00
2024-04-25T05:20:01.482Z,31.60
2024-04-25T05:22:09.664Z,32.20
2024-04-25T05:24:16.982Z,32.60
2024-04-25T05:26:25.127Z,32.60
2024-04-25T05:28:32.901Z,33.60
2024-04-25T05:30:40.202Z,30.30
2024-04-25T05:32:47.553Z,28.00
2024-04-25T05:34:57.460Z,27.90
2024-04-25T05:37:04.952Z,28.30
2024-04-25T05:39:12.685Z,26.20
2024-04-25T05:41:19.950Z,29.20
2024-04-25T05:43:27.227Z,28.40
2024-04-25T05:45:34.439Z,26.10
2024-04-25T05:47:41.770Z,25.00
2024-04-25T05:49:51.314Z,23.20
2024-04-25T05:51:58.554Z,26.00
2024-04-25T18:02:05.463Z,2.30
2024-04-25T18:04:12.392Z,1.80
2024-04-25T18:06:21.088Z,2.20
2024-04-25T18:08:27.949Z,2.70
2024-04-25T18:10:35.014Z,16.00
2024-04-25T18:12:43.518Z,41.30
2024-04-25T18:14:50.507Z,53.60
2024-04-25T18:16:57.419Z,47.00
2024-04-25T18:19:04.550Z,42.50
2024-04-25T18:21:11.919Z,31.80
2024-04-25T18:23:18.861Z,25.50
2024-04-25T18:25:25.927Z,24.30
2024-04-25T18:27:32.796Z,22.30
2024-04-25T18:29:41.055Z,18.80
2024-04-25T18:31:47.994Z,17.30
2024-04-25T18:33:55.221Z,14.70
2024-04-25T18:36:02.140Z,14.70
2024-04-25T18:38:08.957Z,17.20
2024-04-25T18:40:16.198Z,14.50
2024-04-25T18:42:23.792Z,11.70
2024-04-25T18:44:30.744Z,10.50
2024-04-25T18:46:37.716Z,10.40
2024-04-25T18:48:44.817Z,18.50
2024-04-25T18:50:52.038Z,27.70
2024-04-25T18:52:58.985Z,25.20
2024-04-25T18:55:06.591Z,23.60
2024-04-25T18:57:14.816Z,18.40
2024-04-25T18:59:23.822Z,13.60
2024-04-25T19:01:31.488Z,14.80
2024-04-25T19:03:39.597Z,14.00
2024-04-25T19:05:47.003Z,13.50
2024-04-25T19:07:53.847Z,11.70
2024-04-25T19:10:00.803Z,14.50
2024-04-25T19:12:08.386Z,14.70
2024-04-25T19:14:15.618Z,15.30
2024-04-25T19:16:25.560Z,15.90
2024-04-25T19:18:32.491Z,19.30
2024-04-25T19:20:39.480Z,29.40
2024-04-25T19:22:46.481Z,48.90
2024-04-25T19:24:53.344Z,30.40
2024-04-25T19:27:00.340Z,36.00
2024-04-25T19:29:07.579Z,36.70
2024-04-25T19:31:14.505Z,39.80
2024-04-25T19:33:23.321Z,41.20
2024-04-25T19:35:30.552Z,39.50
2024-04-25T19:37:37.466Z,34.40
2024-04-25T19:39:46.314Z,31.90
2024-04-25T19:41:55.201Z,28.10
2024-04-25T19:44:02.076Z,32.10
2024-04-25T19:46:13.068Z,37.30
2024-04-25T19:48:20.059Z,37.00
2024-04-25T19:50:27.151Z,37.00
2024-04-25T19:52:34.671Z,31.60
2024-04-25T19:54:41.575Z,29.00
2024-04-25T19:56:49.604Z,27.00
2024-04-25T19:58:56.768Z,29.80
2024-04-25T20:01:03.747Z,26.90
2024-04-25T20:03:10.728Z,24.60
2024-04-25T20:05:18.114Z,23.60
2024-04-25T20:07:27.271Z,20.60
2024-04-25T20:09:34.149Z,21.60
2024-04-25T20:11:43.157Z,24.30
2024-04-25T20:13:50.094Z,28.80
2024-04-25T20:15:57.217Z,31.80
2024-04-25T20:18:22.383Z,26.30
2024-04-25T20:20:47.258Z,28.40
2024-04-25T20:22:54.606Z,32.70
2024-04-25T20:25:02.770Z,32.30
2024-04-25T20:27:09.822Z,34.80
2024-04-25T20:29:16.731Z,39.20
2024-04-25T20:31:24.541Z,48.20
2024-04-25T20:33:31.629Z,33.60
2024-04-25T20:35:39.687Z,26.70
2024-04-25T20:37:46.532Z,28.50
2024-04-25T20:39:55.087Z,35.50
2024-04-25T20:42:02.030Z,34.10
2024-04-25T20:44:10.466Z,29.70
2024-04-25T20:46:23.651Z,28.70
2024-04-25T20:48:30.646Z,28.90
2024-04-25T20:50:37.737Z,28.10
2024-04-25T20:52:44.722Z,26.50
2024-04-25T20:54:51.580Z,27.40
2024-04-25T20:56:58.508Z,30.60
2024-04-25T20:59:05.421Z,37.10
2024-04-25T21:01:12.404Z,39.10
2024-04-25T21:03:19.479Z,43.40
2024-04-25T21:05:26.543Z,48.00
2024-04-25T21:07:34.732Z,41.10
2024-04-25T21:09:41.638Z,38.30
2024-04-25T21:11:48.571Z,35.40
2024-04-25T21:13:55.818Z,35.90
2024-04-25T21:16:02.734Z,34.40
2024-04-25T21:18:09.870Z,33.30
2024-04-25T21:20:16.919Z,32.30
2024-04-25T21:22:23.823Z,30.90
2024-04-25T21:24:30.712Z,30.70
2024-04-25T21:26:37.597Z,31.00
2024-04-25T21:28:45.521Z,32.80
2024-04-25T21:30:52.563Z,34.30
2024-04-25T21:32:59.582Z,34.00
2024-04-25T21:35:07.629Z,33.00
2024-04-25T21:37:14.582Z,31.50
2024-04-25T21:39:21.553Z,27.20
2024-04-25T21:41:28.409Z,25.50
2024-04-25T21:43:35.436Z,25.80
2024-04-25T21:45:42.504Z,27.20
2024-04-25T21:47:50.486Z,29.20
2024-04-25T21:50:00.187Z,30.50
2024-04-25T21:52:07.876Z,31.10
2024-04-25T21:54:15.102Z,29.70
2024-04-25T21:56:22.046Z,30.90
2024-04-25T21:58:29.177Z,30.90
2024-04-25T22:00:36.142Z,30.50
2024-04-25T22:02:43.090Z,29.50
2024-04-25T22:04:49.939Z,28.00
2024-04-25T22:06:58.056Z,28.30
2024-04-25T22:09:05.016Z,27.70
2024-04-25T22:11:12.006Z,27.80
2024-04-25T22:13:19.186Z,28.60
2024-04-25T22:15:26.043Z,28.40
2024-04-25T22:17:32.951Z,26.70
2024-04-25T22:19:40.105Z,27.70
2024-04-25T22:21:50.683Z,28.40
2024-04-25T22:23:57.603Z,28.50
2024-04-25T22:26:04.618Z,30.30
2024-04-25T22:28:11.778Z,28.20
2024-04-25T22:30:19.609Z,29.40
2024-04-25T22:32:29.183Z,29.60
2024-04-25T22:34:36.747Z,33.10
2024-04-25T22:36:43.584Z,37.00
2024-04-25T22:38:50.470Z,33.10
2024-04-25T22:40:57.364Z,29.90
2024-04-25T22:43:04.283Z,31.10
2024-04-25T22:45:16.100Z,30.00
2024-04-25T22:47:28.878Z,30.50
2024-04-25T22:49:35.865Z,30.30
2024-04-25T22:51:42.757Z,31.20
2024-04-25T22:53:49.932Z,30.10
2024-04-25T22:55:56.838Z,28.50
2024-04-25T22:58:03.702Z,27.50
2024-04-25T23:00:12.688Z,26.40
2024-04-25T23:02:19.596Z,25.60
2024-04-25T23:04:26.482Z,25.20
2024-04-25T23:06:33.363Z,23.30
2024-04-25T23:08:40.261Z,24.00
2024-04-25T23:10:47.084Z,21.50
2024-04-25T23:12:54.134Z,23.80
2024-04-25T23:15:03.642Z,22.70
2024-04-25T23:17:10.619Z,23.30
2024-04-25T23:19:17.664Z,22.10
2024-04-25T23:21:24.534Z,23.20
2024-04-25T23:23:31.443Z,22.90
2024-04-25T23:25:38.305Z,23.10
2024-04-25T23:27:45.458Z,23.10
2024-04-25T23:29:52.441Z,23.50
2024-04-25T23:31:59.463Z,24.20
2024-04-25T23:34:06.525Z,23.90
2024-04-25T23:36:13.667Z,22.10
2024-04-25T23:38:20.673Z,23.20
2024-04-25T23:40:27.991Z,24.50
2024-04-25T23:42:37.346Z,25.50
2024-04-25T23:44:44.319Z,25.90
2024-04-25T23:46:51.217Z,24.30
2024-04-25T23:48:58.083Z,22.80
2024-04-25T23:51:05.067Z,23.50
2024-04-25T23:53:11.980Z,24.40
2024-04-25T23:55:18.837Z,23.20
2024-04-25T23:57:25.871Z,23.50
2024-04-25T23:59:32.821Z,23.30
